sensor_id;sensor_type;location;lat;lon;timestamp;P1;durP1;ratioP1;P2;durP2;ratioP2
7563;SDS011;3823;53.586;10.040;2023-07-20T04:02:24;2.00;;;1.77;;
7563;SDS011;3823;53.586;10.040;2023-07-20T04:04:50;2.50;;;2.25;;
7563;SDS011;3823;53.586;10.040;2023-07-20T04:07:16;3.42;;;2.42;;
7563;SDS011;3823;53.586;10.040;2023-07-20T04:09:41;2.88;;;2.58;;
7563;SDS011;3823;53.586;10.040;2023-07-20T04:12:07;2.33;;;2.13;;
7563;SDS011;3823;53.586;10.040;2023-07-20T04:14:32;2.75;;;2.55;;
7563;SDS011;3823;53.586;10.040;2023-07-20T04:16:58;2.70;;;2.50;;
7563;SDS011;3823;53.586;10.040;2023-07-20T04:19:25;2.47;;;2.28;;
7563;SDS011;3823;53.586;10.040;2023-07-20T04:21:51;3.05;;;2.50;;
7563;SDS011;3823;53.586;10.040;2023-07-20T04:24:16;2.65;;;2.45;;
7563;SDS011;3823;53.586;10.040;2023-07-20T04:26:42;2.78;;;2.50;;
7563;SDS011;3823;53.586;10.040;2023-07-20T04:29:07;3.88;;;2.78;;
7563;SDS011;3823;53.586;10.040;2023-07-20T04:31:33;2.70;;;2.50;;
7563;SDS011;3823;53.586;10.040;2023-07-20T04:33:59;3.00;;;2.70;;
7563;SDS011;3823;53.586;10.040;2023-07-20T04:36:24;3.05;;;2.85;;
7563;SDS011;3823;53.586;10.040;2023-07-20T04:38:50;3.50;;;3.20;;
7563;SDS011;3823;53.586;10.040;2023-07-20T04:41:15;3.08;;;2.80;;
7563;SDS011;3823;53.586;10.040;2023-07-20T04:43:41;3.25;;;3.05;;
7563;SDS011;3823;53.586;10.040;2023-07-20T04:46:08;3.22;;;3.03;;
7563;SDS011;3823;53.586;10.040;2023-07-20T04:48:34;3.28;;;3.08;;
7563;SDS011;3823;53.586;10.040;2023-07-20T04:50:59;2.55;;;2.35;;
7563;SDS011;3823;53.586;10.040;2023-07-20T04:53:25;2.63;;;2.42;;
7563;SDS011;3823;53.586;10.040;2023-07-20T04:55:50;3.67;;;2.65;;
7563;SDS011;3823;53.586;10.040;2023-07-20T04:58:17;4.78;;;2.60;;
7563;SDS011;3823;53.586;10.040;2023-07-20T05:00:43;2.30;;;2.10;;
7563;SDS011;3823;53.586;10.040;2023-07-20T05:03:10;2.40;;;2.20;;
7563;SDS011;3823;53.586;10.040;2023-07-20T05:05:35;3.55;;;2.03;;
7563;SDS011;3823;53.586;10.040;2023-07-20T05:08:01;2.53;;;2.33;;
7563;SDS011;3823;53.586;10.040;2023-07-20T05:10:28;2.40;;;2.30;;
7563;SDS011;3823;53.586;10.040;2023-07-20T05:12:54;1.95;;;1.85;;
7563;SDS011;3823;53.586;10.040;2023-07-20T05:15:19;1.80;;;1.70;;
7563;SDS011;3823;53.586;10.040;2023-07-20T05:17:45;2.10;;;1.63;;
7563;SDS011;3823;53.586;10.040;2023-07-20T05:20:11;1.88;;;1.77;;
7563;SDS011;3823;53.586;10.040;2023-07-20T05:22:37;1.90;;;1.80;;
7563;SDS011;3823;53.586;10.040;2023-07-20T05:25:05;1.63;;;1.52;;
7563;SDS011;3823;53.586;10.040;2023-07-20T05:27:36;1.52;;;1.42;;
7563;SDS011;3823;53.586;10.040;2023-07-20T05:30:02;2.28;;;2.08;;
7563;SDS011;3823;53.586;10.040;2023-07-20T05:32:29;2.60;;;1.60;;
7563;SDS011;3823;53.586;10.040;2023-07-20T05:34:54;2.30;;;2.20;;
7563;SDS011;3823;53.586;10.040;2023-07-20T05:37:20;1.92;;;1.83;;
7563;SDS011;3823;53.586;10.040;2023-07-20T05:39:46;7.40;;;1.90;;
7563;SDS011;3823;53.586;10.040;2023-07-20T05:42:12;3.17;;;2.60;;
7563;SDS011;3823;53.586;10.040;2023-07-20T05:44:37;3.08;;;2.08;;
7563;SDS011;3823;53.586;10.040;2023-07-20T05:47:03;2.70;;;2.50;;
7563;SDS011;3823;53.586;10.040;2023-07-20T05:49:29;2.45;;;2.25;;
7563;SDS011;3823;53.586;10.040;2023-07-20T05:51:55;3.97;;;2.90;;
7563;SDS011;3823;53.586;10.040;2023-07-20T05:54:21;5.95;;;2.70;;
7563;SDS011;3823;53.586;10.040;2023-07-20T05:56:48;2.72;;;2.08;;
7563;SDS011;3823;53.586;10.040;2023-07-20T05:59:14;2.47;;;2.28;;
7563;SDS011;3823;53.586;10.040;2023-07-20T06:01:40;2.30;;;2.17;;
7563;SDS011;3823;53.586;10.040;2023-07-20T06:04:05;3.78;;;2.28;;
7563;SDS011;3823;53.586;10.040;2023-07-20T06:06:31;3.20;;;2.90;;
7563;SDS011;3823;53.586;10.040;2023-07-20T06:08:56;3.28;;;2.97;;
7563;SDS011;3823;53.586;10.040;2023-07-20T06:11:22;6.65;;;3.55;;
7563;SDS011;3823;53.586;10.040;2023-07-20T06:13:47;2.33;;;2.13;;
7563;SDS011;3823;53.586;10.040;2023-07-20T06:16:13;2.53;;;2.33;;
7563;SDS011;3823;53.586;10.040;2023-07-20T06:18:38;2.40;;;2.20;;
7563;SDS011;3823;53.586;10.040;2023-07-20T06:21:04;2.38;;;2.28;;
7563;SDS011;3823;53.586;10.040;2023-07-20T06:23:29;2.40;;;2.00;;
7563;SDS011;3823;53.586;10.040;2023-07-20T06:25:56;1.98;;;1.80;;
7563;SDS011;3823;53.586;10.040;2023-07-20T06:28:22;1.77;;;1.67;;
7563;SDS011;3823;53.586;10.040;2023-07-20T06:30:47;2.67;;;2.25;;
7563;SDS011;3823;53.586;10.040;2023-07-20T06:33:13;1.98;;;1.85;;
7563;SDS011;3823;53.586;10.040;2023-07-20T06:35:41;3.50;;;2.38;;
7563;SDS011;3823;53.586;10.040;2023-07-20T06:38:10;2.05;;;1.75;;
7563;SDS011;3823;53.586;10.040;2023-07-20T06:40:35;1.70;;;1.58;;
7563;SDS011;3823;53.586;10.040;2023-07-20T06:43:01;1.50;;;1.15;;
7563;SDS011;3823;53.586;10.040;2023-07-20T06:45:27;2.35;;;1.33;;
7563;SDS011;3823;53.586;10.040;2023-07-20T06:47:52;1.40;;;1.20;;
7563;SDS011;3823;53.586;10.040;2023-07-20T06:50:18;2.78;;;1.17;;
7563;SDS011;3823;53.586;10.040;2023-07-20T06:52:43;1.95;;;0.95;;
7563;SDS011;3823;53.586;10.040;2023-07-20T06:55:09;2.65;;;1.15;;
7563;SDS011;3823;53.586;10.040;2023-07-20T06:57:35;1.83;;;1.13;;
7563;SDS011;3823;53.586;10.040;2023-07-20T07:00:01;3.80;;;1.60;;
7563;SDS011;3823;53.586;10.040;2023-07-20T07:02:26;1.30;;;0.80;;
7563;SDS011;3823;53.586;10.040;2023-07-20T07:04:52;5.03;;;1.15;;
7563;SDS011;3823;53.586;10.040;2023-07-20T07:07:17;4.90;;;1.45;;
7563;SDS011;3823;53.586;10.040;2023-07-20T07:09:43;4.32;;;1.15;;
7563;SDS011;3823;53.586;10.040;2023-07-20T07:12:08;2.28;;;1.08;;
7563;SDS011;3823;53.586;10.040;2023-07-20T07:14:34;2.45;;;0.95;;
7563;SDS011;3823;53.586;10.040;2023-07-20T07:17:00;1.55;;;1.45;;
7563;SDS011;3823;53.586;10.040;2023-07-20T07:19:25;1.75;;;1.17;;
7563;SDS011;3823;53.586;10.040;2023-07-20T07:21:51;2.85;;;1.20;;
7563;SDS011;3823;53.586;10.040;2023-07-20T07:24:17;2.05;;;1.13;;
7563;SDS011;3823;53.586;10.040;2023-07-20T07:26:45;1.33;;;0.85;;
7563;SDS011;3823;53.586;10.040;2023-07-20T07:29:10;3.17;;;1.27;;
7563;SDS011;3823;53.586;10.040;2023-07-20T07:31:36;1.67;;;0.82;;
7563;SDS011;3823;53.586;10.040;2023-07-20T07:34:07;2.20;;;0.85;;
7563;SDS011;3823;53.586;10.040;2023-07-20T07:36:35;1.90;;;0.80;;
7563;SDS011;3823;53.586;10.040;2023-07-20T07:39:01;4.70;;;1.05;;
7563;SDS011;3823;53.586;10.040;2023-07-20T07:41:32;2.40;;;1.10;;
7563;SDS011;3823;53.586;10.040;2023-07-20T07:43:57;2.60;;;1.30;;
7563;SDS011;3823;53.586;10.040;2023-07-20T07:46:23;2.25;;;1.20;;
7563;SDS011;3823;53.586;10.040;2023-07-20T07:48:48;2.03;;;0.90;;
7563;SDS011;3823;53.586;10.040;2023-07-20T07:51:14;4.15;;;1.50;;
7563;SDS011;3823;53.586;10.040;2023-07-20T07:53:40;2.30;;;1.40;;
7563;SDS011;3823;53.586;10.040;2023-07-20T07:56:09;2.55;;;1.30;;
7563;SDS011;3823;53.586;10.040;2023-07-20T07:58:34;2.85;;;1.63;;
7563;SDS011;3823;53.586;10.040;2023-07-20T08:01:00;3.25;;;1.35;;
7563;SDS011;3823;53.586;10.040;2023-07-20T08:03:26;1.80;;;1.52;;
7563;SDS011;3823;53.586;10.040;2023-07-20T08:05:53;5.03;;;1.45;;
7563;SDS011;3823;53.586;10.040;2023-07-20T08:08:20;5.07;;;1.98;;
7563;SDS011;3823;53.586;10.040;2023-07-20T08:10:46;5.53;;;1.58;;
7563;SDS011;3823;53.586;10.040;2023-07-20T08:13:12;2.83;;;1.80;;
7563;SDS011;3823;53.586;10.040;2023-07-20T08:15:38;2.97;;;1.75;;
7563;SDS011;3823;53.586;10.040;2023-07-20T08:18:03;4.93;;;1.92;;
7563;SDS011;3823;53.586;10.040;2023-07-20T08:20:29;2.80;;;1.67;;
7563;SDS011;3823;53.586;10.040;2023-07-20T08:22:54;3.92;;;2.15;;
7563;SDS011;3823;53.586;10.040;2023-07-20T08:25:21;4.15;;;1.65;;
7563;SDS011;3823;53.586;10.040;2023-07-20T08:27:46;2.63;;;1.55;;
7563;SDS011;3823;53.586;10.040;2023-07-20T08:30:12;3.17;;;1.48;;
7563;SDS011;3823;53.586;10.040;2023-07-20T08:32:38;4.25;;;1.17;;
7563;SDS011;3823;53.586;10.040;2023-07-20T08:35:04;8.30;;;2.10;;
7563;SDS011;3823;53.586;10.040;2023-07-20T08:37:31;5.20;;;2.20;;
7563;SDS011;3823;53.586;10.040;2023-07-20T08:39:56;5.82;;;1.45;;
7563;SDS011;3823;53.586;10.040;2023-07-20T08:42:22;3.05;;;1.35;;
7563;SDS011;3823;53.586;10.040;2023-07-20T08:44:48;4.32;;;1.70;;
7563;SDS011;3823;53.586;10.040;2023-07-20T08:47:14;1.88;;;1.40;;
7563;SDS011;3823;53.586;10.040;2023-07-20T08:49:41;4.72;;;1.42;;
7563;SDS011;3823;53.586;10.040;2023-07-20T08:52:07;2.47;;;1.88;;
7563;SDS011;3823;53.586;10.040;2023-07-20T08:54:33;4.35;;;1.50;;
7563;SDS011;3823;53.586;10.040;2023-07-20T08:57:04;2.80;;;1.50;;
7563;SDS011;3823;53.586;10.040;2023-07-20T08:59:31;5.80;;;2.00;;
7563;SDS011;3823;53.586;10.040;2023-07-20T09:02:00;3.67;;;1.95;;
7563;SDS011;3823;53.586;10.040;2023-07-20T09:04:27;5.45;;;2.85;;
7563;SDS011;3823;53.586;10.040;2023-07-20T09:06:52;5.85;;;2.05;;
7563;SDS011;3823;53.586;10.040;2023-07-20T09:09:18;5.60;;;1.90;;
7563;SDS011;3823;53.586;10.040;2023-07-20T09:11:47;2.72;;;1.80;;
7563;SDS011;3823;53.586;10.040;2023-07-20T09:14:13;5.55;;;2.08;;
7563;SDS011;3823;53.586;10.040;2023-07-20T09:16:49;3.40;;;1.73;;
7563;SDS011;3823;53.586;10.040;2023-07-20T09:19:16;2.97;;;1.50;;
7563;SDS011;3823;53.586;10.040;2023-07-20T09:21:46;4.68;;;1.83;;
7563;SDS011;3823;53.586;10.040;2023-07-20T09:24:13;4.75;;;2.38;;
7563;SDS011;3823;53.586;10.040;2023-07-20T09:26:42;3.10;;;1.40;;
7563;SDS011;3823;53.586;10.040;2023-07-20T09:29:09;4.00;;;2.00;;
7563;SDS011;3823;53.586;10.040;2023-07-20T09:31:35;5.93;;;1.70;;
7563;SDS011;3823;53.586;10.040;2023-07-20T09:34:01;9.27;;;1.67;;
7563;SDS011;3823;53.586;10.040;2023-07-20T09:36:28;3.08;;;1.15;;
7563;SDS011;3823;53.586;10.040;2023-07-20T09:38:53;3.63;;;1.35;;
7563;SDS011;3823;53.586;10.040;2023-07-20T09:41:20;1.92;;;1.15;;
7563;SDS011;3823;53.586;10.040;2023-07-20T09:43:46;3.53;;;1.17;;
7563;SDS011;3823;53.586;10.040;2023-07-20T09:46:12;1.83;;;1.13;;
7563;SDS011;3823;53.586;10.040;2023-07-20T09:48:38;1.40;;;0.80;;
7563;SDS011;3823;53.586;10.040;2023-07-20T09:51:04;1.60;;;1.02;;
7563;SDS011;3823;53.586;10.040;2023-07-20T09:53:32;4.38;;;1.30;;
7563;SDS011;3823;53.586;10.040;2023-07-20T09:55:58;1.83;;;0.70;;
7563;SDS011;3823;53.586;10.040;2023-07-20T09:58:27;1.30;;;0.90;;
7563;SDS011;3823;53.586;10.040;2023-07-20T10:00:54;4.30;;;0.80;;
7563;SDS011;3823;53.586;10.040;2023-07-20T10:03:22;4.43;;;0.80;;
7563;SDS011;3823;53.586;10.040;2023-07-20T10:06:02;2.67;;;0.85;;
7563;SDS011;3823;53.586;10.040;2023-07-20T10:08:30;1.92;;;1.17;;
7563;SDS011;3823;53.586;10.040;2023-07-20T10:10:59;3.15;;;0.70;;
7563;SDS011;3823;53.586;10.040;2023-07-20T10:13:27;3.65;;;1.10;;
7563;SDS011;3823;53.586;10.040;2023-07-20T10:15:58;3.65;;;0.75;;
7563;SDS011;3823;53.586;10.040;2023-07-20T10:18:30;1.40;;;0.60;;
7563;SDS011;3823;53.586;10.040;2023-07-20T10:21:02;2.25;;;0.65;;
7563;SDS011;3823;53.586;10.040;2023-07-20T10:23:31;5.30;;;1.00;;
7563;SDS011;3823;53.586;10.040;2023-07-20T10:25:58;2.15;;;0.75;;
7563;SDS011;3823;53.586;10.040;2023-07-20T10:28:26;1.95;;;1.17;;
7563;SDS011;3823;53.586;10.040;2023-07-20T10:30:52;3.10;;;1.20;;
7563;SDS011;3823;53.586;10.040;2023-07-20T10:33:18;1.40;;;0.70;;
7563;SDS011;3823;53.586;10.040;2023-07-20T10:35:54;2.38;;;1.00;;
7563;SDS011;3823;53.586;10.040;2023-07-20T10:38:38;6.18;;;1.40;;
7563;SDS011;3823;53.586;10.040;2023-07-20T10:41:20;4.53;;;0.70;;
7563;SDS011;3823;53.586;10.040;2023-07-20T10:43:49;4.20;;;1.17;;
7563;SDS011;3823;53.586;10.040;2023-07-20T10:46:33;2.20;;;1.00;;
7563;SDS011;3823;53.586;10.040;2023-07-20T10:49:06;3.55;;;0.60;;
7563;SDS011;3823;53.586;10.040;2023-07-20T10:51:43;1.48;;;0.60;;
7563;SDS011;3823;53.586;10.040;2023-07-20T10:56:44;4.10;;;0.65;;
7563;SDS011;3823;53.586;10.040;2023-07-20T11:01:56;2.85;;;0.73;;
7563;SDS011;3823;53.586;10.040;2023-07-20T11:04:41;4.35;;;0.90;;
7563;SDS011;3823;53.586;10.040;2023-07-20T11:07:08;2.15;;;1.00;;
7563;SDS011;3823;53.586;10.040;2023-07-20T11:09:37;3.08;;;0.95;;
7563;SDS011;3823;53.586;10.040;2023-07-20T11:12:14;2.33;;;0.70;;
7563;SDS011;3823;53.586;10.040;2023-07-20T11:14:56;6.57;;;0.88;;
7563;SDS011;3823;53.586;10.040;2023-07-20T11:17:28;2.85;;;0.85;;
7563;SDS011;3823;53.586;10.040;2023-07-20T11:19:55;4.05;;;0.90;;
7563;SDS011;3823;53.586;10.040;2023-07-20T11:22:22;2.30;;;0.70;;
7563;SDS011;3823;53.586;10.040;2023-07-20T11:24:47;1.30;;;0.60;;
7563;SDS011;3823;53.586;10.040;2023-07-20T11:27:14;2.00;;;0.80;;
7563;SDS011;3823;53.586;10.040;2023-07-20T11:29:40;2.13;;;0.60;;
7563;SDS011;3823;53.586;10.040;2023-07-20T11:32:05;1.10;;;0.40;;
7563;SDS011;3823;53.586;10.040;2023-07-20T11:34:32;1.20;;;0.50;;
7563;SDS011;3823;53.586;10.040;2023-07-20T11:36:59;1.73;;;0.60;;
7563;SDS011;3823;53.586;10.040;2023-07-20T11:39:25;2.45;;;0.50;;
7563;SDS011;3823;53.586;10.040;2023-07-20T11:41:52;1.40;;;0.50;;
7563;SDS011;3823;53.586;10.040;2023-07-20T11:44:23;3.65;;;0.57;;
7563;SDS011;3823;53.586;10.040;2023-07-20T11:47:00;1.10;;;0.40;;
7563;SDS011;3823;53.586;10.040;2023-07-20T11:49:37;1.73;;;0.70;;
7563;SDS011;3823;53.586;10.040;2023-07-20T11:52:07;1.95;;;0.50;;
7563;SDS011;3823;53.586;10.040;2023-07-20T11:54:39;3.28;;;0.70;;
7563;SDS011;3823;53.586;10.040;2023-07-20T11:57:05;4.90;;;0.60;;
7563;SDS011;3823;53.586;10.040;2023-07-20T11:59:31;1.90;;;0.60;;
7563;SDS011;3823;53.586;10.040;2023-07-20T12:01:58;5.35;;;0.50;;
7563;SDS011;3823;53.586;10.040;2023-07-20T12:04:31;1.90;;;0.65;;
7563;SDS011;3823;53.586;10.040;2023-07-20T12:06:57;4.57;;;0.50;;
7563;SDS011;3823;53.586;10.040;2023-07-20T12:09:24;1.33;;;0.52;;
7563;SDS011;3823;53.586;10.040;2023-07-20T12:11:49;4.38;;;0.60;;
7563;SDS011;3823;53.586;10.040;2023-07-20T12:14:15;2.22;;;0.90;;
7563;SDS011;3823;53.586;10.040;2023-07-20T12:16:42;1.40;;;0.40;;
7563;SDS011;3823;53.586;10.040;2023-07-20T12:19:08;1.30;;;0.60;;
7563;SDS011;3823;53.586;10.040;2023-07-20T12:21:36;2.22;;;0.82;;
7563;SDS011;3823;53.586;10.040;2023-07-20T12:24:03;4.47;;;0.88;;
7563;SDS011;3823;53.586;10.040;2023-07-20T12:26:30;3.67;;;0.60;;
7563;SDS011;3823;53.586;10.040;2023-07-20T12:28:56;2.15;;;1.42;;
7563;SDS011;3823;53.586;10.040;2023-07-20T12:31:23;4.57;;;1.40;;
7563;SDS011;3823;53.586;10.040;2023-07-20T12:33:52;3.10;;;0.70;;
7563;SDS011;3823;53.586;10.040;2023-07-20T12:36:20;2.55;;;0.50;;
7563;SDS011;3823;53.586;10.040;2023-07-20T12:38:46;4.25;;;1.17;;
7563;SDS011;3823;53.586;10.040;2023-07-20T12:41:12;2.42;;;1.40;;
7563;SDS011;3823;53.586;10.040;2023-07-20T12:43:41;2.10;;;0.88;;
7563;SDS011;3823;53.586;10.040;2023-07-20T12:46:08;2.72;;;0.50;;
7563;SDS011;3823;53.586;10.040;2023-07-20T12:48:35;2.92;;;0.85;;
7563;SDS011;3823;53.586;10.040;2023-07-20T12:51:06;4.57;;;0.90;;
7563;SDS011;3823;53.586;10.040;2023-07-20T12:53:32;4.00;;;0.93;;
7563;SDS011;3823;53.586;10.040;2023-07-20T12:55:58;2.55;;;0.80;;
7563;SDS011;3823;53.586;10.040;2023-07-20T12:58:24;2.45;;;0.90;;
7563;SDS011;3823;53.586;10.040;2023-07-20T13:00:50;1.60;;;0.70;;
7563;SDS011;3823;53.586;10.040;2023-07-20T13:03:16;3.38;;;0.68;;
7563;SDS011;3823;53.586;10.040;2023-07-20T13:05:43;3.58;;;0.90;;
7563;SDS011;3823;53.586;10.040;2023-07-20T13:08:09;2.42;;;0.73;;
7563;SDS011;3823;53.586;10.040;2023-07-20T13:10:35;2.55;;;1.83;;
7563;SDS011;3823;53.586;10.040;2023-07-20T13:13:00;3.55;;;0.93;;
7563;SDS011;3823;53.586;10.040;2023-07-20T13:15:30;2.50;;;0.60;;
7563;SDS011;3823;53.586;10.040;2023-07-20T13:17:59;1.45;;;0.60;;
7563;SDS011;3823;53.586;10.040;2023-07-20T13:20:25;1.30;;;0.50;;
7563;SDS011;3823;53.586;10.040;2023-07-20T13:22:53;1.10;;;0.40;;
7563;SDS011;3823;53.586;10.040;2023-07-20T13:25:18;1.50;;;0.80;;
7563;SDS011;3823;53.586;10.040;2023-07-20T13:27:44;3.28;;;0.50;;
7563;SDS011;3823;53.586;10.040;2023-07-20T13:30:10;2.08;;;0.50;;
7563;SDS011;3823;53.586;10.040;2023-07-20T13:32:41;1.88;;;0.60;;
7563;SDS011;3823;53.586;10.040;2023-07-20T13:35:07;2.72;;;0.80;;
7563;SDS011;3823;53.586;10.040;2023-07-20T13:37:33;2.50;;;0.90;;
7563;SDS011;3823;53.586;10.040;2023-07-20T13:39:59;2.50;;;0.70;;
7563;SDS011;3823;53.586;10.040;2023-07-20T13:42:24;1.40;;;0.50;;
7563;SDS011;3823;53.586;10.040;2023-07-20T13:44:50;1.75;;;0.85;;
7563;SDS011;3823;53.586;10.040;2023-07-20T13:47:16;3.25;;;0.65;;
7563;SDS011;3823;53.586;10.040;2023-07-20T13:49:43;2.33;;;0.50;;
7563;SDS011;3823;53.586;10.040;2023-07-20T13:52:08;2.05;;;0.60;;
7563;SDS011;3823;53.586;10.040;2023-07-20T13:54:34;1.60;;;0.80;;
7563;SDS011;3823;53.586;10.040;2023-07-20T13:57:00;5.88;;;0.65;;
7563;SDS011;3823;53.586;10.040;2023-07-20T13:59:25;1.95;;;0.80;;
7563;SDS011;3823;53.586;10.040;2023-07-20T14:01:51;2.83;;;0.60;;
7563;SDS011;3823;53.586;10.040;2023-07-20T14:04:16;1.73;;;0.40;;
7563;SDS011;3823;53.586;10.040;2023-07-20T14:06:42;1.25;;;0.50;;
7563;SDS011;3823;53.586;10.040;2023-07-20T14:09:08;1.30;;;0.40;;
7563;SDS011;3823;53.586;10.040;2023-07-20T14:11:34;1.08;;;0.40;;
7563;SDS011;3823;53.586;10.040;2023-07-20T14:14:00;2.33;;;0.68;;
7563;SDS011;3823;53.586;10.040;2023-07-20T14:16:25;3.55;;;0.50;;
7563;SDS011;3823;53.586;10.040;2023-07-20T14:18:51;3.78;;;0.73;;
7563;SDS011;3823;53.586;10.040;2023-07-20T14:21:18;1.63;;;0.70;;
7563;SDS011;3823;53.586;10.040;2023-07-20T14:23:45;3.15;;;0.55;;
7563;SDS011;3823;53.586;10.040;2023-07-20T14:26:12;7.90;;;1.55;;
7563;SDS011;3823;53.586;10.040;2023-07-20T14:28:38;1.80;;;0.60;;
7563;SDS011;3823;53.586;10.040;2023-07-20T14:31:04;3.58;;;1.05;;
7563;SDS011;3823;53.586;10.040;2023-07-20T14:33:30;2.17;;;0.70;;
7563;SDS011;3823;53.586;10.040;2023-07-20T14:35:56;3.38;;;0.60;;
7563;SDS011;3823;53.586;10.040;2023-07-20T14:38:22;1.80;;;0.88;;
7563;SDS011;3823;53.586;10.040;2023-07-20T14:40:47;2.67;;;0.60;;
7563;SDS011;3823;53.586;10.040;2023-07-20T14:43:13;1.55;;;0.57;;
7563;SDS011;3823;53.586;10.040;2023-07-20T14:45:40;2.15;;;0.70;;
7563;SDS011;3823;53.586;10.040;2023-07-20T14:48:07;1.30;;;0.88;;
7563;SDS011;3823;53.586;10.040;2023-07-20T14:50:33;1.23;;;0.50;;
7563;SDS011;3823;53.586;10.040;2023-07-20T14:52:59;3.92;;;0.75;;
7563;SDS011;3823;53.586;10.040;2023-07-20T14:55:25;3.20;;;1.05;;
7563;SDS011;3823;53.586;10.040;2023-07-20T14:57:50;1.48;;;0.65;;
7563;SDS011;3823;53.586;10.040;2023-07-20T15:00:16;2.67;;;0.82;;
7563;SDS011;3823;53.586;10.040;2023-07-20T15:02:42;1.30;;;0.57;;
7563;SDS011;3823;53.586;10.040;2023-07-20T15:05:09;3.08;;;0.73;;
7563;SDS011;3823;53.586;10.040;2023-07-20T15:07:35;3.15;;;0.55;;
7563;SDS011;3823;53.586;10.040;2023-07-20T15:10:02;1.75;;;0.70;;
7563;SDS011;3823;53.586;10.040;2023-07-20T15:12:28;2.47;;;0.70;;
7563;SDS011;3823;53.586;10.040;2023-07-20T15:17:31;2.85;;;0.80;;
7563;SDS011;3823;53.586;10.040;2023-07-20T15:19:57;2.15;;;0.80;;
7563;SDS011;3823;53.586;10.040;2023-07-20T15:22:24;4.28;;;1.20;;
7563;SDS011;3823;53.586;10.040;2023-07-20T15:24:50;2.40;;;1.10;;
7563;SDS011;3823;53.586;10.040;2023-07-20T15:27:16;2.78;;;0.90;;
7563;SDS011;3823;53.586;10.040;2023-07-20T15:29:41;4.57;;;1.00;;
7563;SDS011;3823;53.586;10.040;2023-07-20T15:32:07;3.90;;;0.77;;
7563;SDS011;3823;53.586;10.040;2023-07-20T15:34:34;4.22;;;1.10;;
7563;SDS011;3823;53.586;10.040;2023-07-20T15:36:59;3.38;;;1.08;;
7563;SDS011;3823;53.586;10.040;2023-07-20T15:39:25;3.72;;;0.70;;
7563;SDS011;3823;53.586;10.040;2023-07-20T15:41:52;2.10;;;0.93;;
7563;SDS011;3823;53.586;10.040;2023-07-20T15:44:17;1.77;;;0.93;;
7563;SDS011;3823;53.586;10.040;2023-07-20T15:46:43;1.70;;;0.80;;
7563;SDS011;3823;53.586;10.040;2023-07-20T15:49:11;2.92;;;0.70;;
7563;SDS011;3823;53.586;10.040;2023-07-20T15:51:36;4.25;;;0.75;;
7563;SDS011;3823;53.586;10.040;2023-07-20T15:54:04;1.60;;;0.80;;
7563;SDS011;3823;53.586;10.040;2023-07-20T15:56:33;2.33;;;0.80;;
7563;SDS011;3823;53.586;10.040;2023-07-20T15:58:59;2.08;;;1.23;;
7563;SDS011;3823;53.586;10.040;2023-07-20T16:01:24;5.25;;;0.77;;
7563;SDS011;3823;53.586;10.040;2023-07-20T16:03:50;2.33;;;0.88;;
7563;SDS011;3823;53.586;10.040;2023-07-20T16:06:16;1.50;;;0.73;;
7563;SDS011;3823;53.586;10.040;2023-07-20T16:08:42;1.88;;;1.08;;
7563;SDS011;3823;53.586;10.040;2023-07-20T16:11:08;1.55;;;0.85;;
7563;SDS011;3823;53.586;10.040;2023-07-20T16:13:33;2.75;;;1.10;;
7563;SDS011;3823;53.586;10.040;2023-07-20T16:18:27;2.63;;;0.80;;
7563;SDS011;3823;53.586;10.040;2023-07-20T16:20:54;2.70;;;1.27;;
7563;SDS011;3823;53.586;10.040;2023-07-20T16:23:21;1.50;;;1.05;;
7563;SDS011;3823;53.586;10.040;2023-07-20T16:25:47;2.92;;;1.00;;
7563;SDS011;3823;53.586;10.040;2023-07-20T16:28:12;2.80;;;1.20;;
7563;SDS011;3823;53.586;10.040;2023-07-20T16:30:38;2.53;;;0.95;;
7563;SDS011;3823;53.586;10.040;2023-07-20T16:33:04;2.95;;;1.25;;
7563;SDS011;3823;53.586;10.040;2023-07-20T16:35:31;6.35;;;1.00;;
7563;SDS011;3823;53.586;10.040;2023-07-20T16:38:01;3.25;;;1.50;;
7563;SDS011;3823;53.586;10.040;2023-07-20T16:40:27;1.67;;;0.80;;
7563;SDS011;3823;53.586;10.040;2023-07-20T16:42:52;2.40;;;0.98;;
7563;SDS011;3823;53.586;10.040;2023-07-20T16:45:18;4.22;;;1.55;;
7563;SDS011;3823;53.586;10.040;2023-07-20T16:47:43;2.35;;;1.10;;
7563;SDS011;3823;53.586;10.040;2023-07-20T16:50:09;2.75;;;0.70;;
7563;SDS011;3823;53.586;10.040;2023-07-20T16:52:35;2.83;;;1.40;;
7563;SDS011;3823;53.586;10.040;2023-07-20T16:55:00;3.92;;;0.98;;
7563;SDS011;3823;53.586;10.040;2023-07-20T16:57:26;5.13;;;1.30;;
7563;SDS011;3823;53.586;10.040;2023-07-20T16:59:52;1.80;;;1.05;;
7563;SDS011;3823;53.586;10.040;2023-07-20T17:02:18;3.42;;;0.98;;
7563;SDS011;3823;53.586;10.040;2023-07-20T17:04:47;2.28;;;0.90;;
7563;SDS011;3823;53.586;10.040;2023-07-20T17:07:13;3.17;;;1.25;;
7563;SDS011;3823;53.586;10.040;2023-07-20T17:09:39;1.83;;;1.00;;
7563;SDS011;3823;53.586;10.040;2023-07-20T17:12:06;2.70;;;1.00;;
7563;SDS011;3823;53.586;10.040;2023-07-20T17:14:32;4.60;;;0.85;;
7563;SDS011;3823;53.586;10.040;2023-07-20T17:16:59;3.15;;;1.20;;
7563;SDS011;3823;53.586;10.040;2023-07-20T17:19:24;1.58;;;0.88;;
7563;SDS011;3823;53.586;10.040;2023-07-20T17:21:50;2.60;;;1.10;;
7563;SDS011;3823;53.586;10.040;2023-07-20T17:24:16;2.85;;;0.90;;
7563;SDS011;3823;53.586;10.040;2023-07-20T17:26:42;2.08;;;1.00;;
7563;SDS011;3823;53.586;10.040;2023-07-20T17:29:07;3.25;;;1.17;;
7563;SDS011;3823;53.586;10.040;2023-07-20T17:31:33;1.88;;;1.42;;
7563;SDS011;3823;53.586;10.040;2023-07-20T17:33:58;5.00;;;1.60;;
7563;SDS011;3823;53.586;10.040;2023-07-20T17:36:24;3.22;;;1.38;;
7563;SDS011;3823;53.586;10.040;2023-07-20T17:38:50;2.83;;;1.17;;
7563;SDS011;3823;53.586;10.040;2023-07-20T17:41:16;3.53;;;1.17;;
7563;SDS011;3823;53.586;10.040;2023-07-20T17:43:41;1.95;;;1.35;;
7563;SDS011;3823;53.586;10.040;2023-07-20T17:46:07;10.27;;;1.92;;
7563;SDS011;3823;53.586;10.040;2023-07-20T17:48:33;3.22;;;1.10;;
7563;SDS011;3823;53.586;10.040;2023-07-20T17:50:58;3.28;;;1.10;;
7563;SDS011;3823;53.586;10.040;2023-07-20T17:53:24;3.25;;;1.00;;
7563;SDS011;3823;53.586;10.040;2023-07-20T17:55:52;2.85;;;1.00;;
7563;SDS011;3823;53.586;10.040;2023-07-20T17:58:18;2.22;;;0.80;;
7563;SDS011;3823;53.586;10.040;2023-07-20T18:00:43;2.95;;;0.90;;
7563;SDS011;3823;53.586;10.040;2023-07-20T18:03:09;2.33;;;1.10;;
7563;SDS011;3823;53.586;10.040;2023-07-20T18:05:35;2.92;;;0.88;;
7563;SDS011;3823;53.586;10.040;2023-07-20T18:08:00;2.15;;;0.93;;
7563;SDS011;3823;53.586;10.040;2023-07-20T18:10:26;7.70;;;0.95;;
7563;SDS011;3823;53.586;10.040;2023-07-20T18:12:52;7.80;;;1.13;;
7563;SDS011;3823;53.586;10.040;2023-07-20T18:15:17;2.45;;;1.33;;
7563;SDS011;3823;53.586;10.040;2023-07-20T18:17:43;3.63;;;1.20;;
7563;SDS011;3823;53.586;10.040;2023-07-20T18:20:09;2.35;;;1.00;;
7563;SDS011;3823;53.586;10.040;2023-07-20T18:22:35;2.60;;;1.00;;
7563;SDS011;3823;53.586;10.040;2023-07-20T18:25:01;2.78;;;0.90;;
7563;SDS011;3823;53.586;10.040;2023-07-20T18:27:28;2.00;;;0.90;;
7563;SDS011;3823;53.586;10.040;2023-07-20T18:29:53;3.08;;;1.00;;
7563;SDS011;3823;53.586;10.040;2023-07-20T18:32:19;2.03;;;0.98;;
7563;SDS011;3823;53.586;10.040;2023-07-20T18:34:45;3.15;;;0.80;;
7563;SDS011;3823;53.586;10.040;2023-07-20T18:37:10;4.30;;;1.00;;
7563;SDS011;3823;53.586;10.040;2023-07-20T18:39:36;2.70;;;1.05;;
7563;SDS011;3823;53.586;10.040;2023-07-20T18:42:02;1.95;;;1.33;;
7563;SDS011;3823;53.586;10.040;2023-07-20T18:44:28;4.13;;;1.65;;
7563;SDS011;3823;53.586;10.040;2023-07-20T18:46:54;1.30;;;0.80;;
7563;SDS011;3823;53.586;10.040;2023-07-20T18:49:23;2.38;;;1.30;;
7563;SDS011;3823;53.586;10.040;2023-07-20T18:51:51;2.25;;;0.70;;
7563;SDS011;3823;53.586;10.040;2023-07-20T18:54:17;2.20;;;1.13;;
7563;SDS011;3823;53.586;10.040;2023-07-20T18:56:42;8.25;;;1.52;;
7563;SDS011;3823;53.586;10.040;2023-07-20T18:59:09;1.50;;;0.70;;
7563;SDS011;3823;53.586;10.040;2023-07-20T19:01:34;1.65;;;0.82;;
7563;SDS011;3823;53.586;10.040;2023-07-20T19:04:00;2.22;;;1.10;;
7563;SDS011;3823;53.586;10.040;2023-07-20T19:06:26;3.42;;;1.25;;
7563;SDS011;3823;53.586;10.040;2023-07-20T19:08:52;3.65;;;1.05;;